Philadelphia Intl Information

FAA: PHL - ICAO: KPHL

Philadelphia Intl (Airport) Location

State Pennsylvania
County Philadelphia
City Philadelphia
Philadelphia Intl (Airport) is 5 miles southwest of Philadelphia, PA.
Latitude 39-52-19.5020N
Longitude 075-14-26.3870W
Elevation 35ft

Philadelphia Intl METARs

METAR KPHL 251554Z 00000KT 10SM OVC055 04/M01 A2999 RMK AO2 SLP155 T00391011
Altimeter 29.99"
Temperature 3.9°C (39.0°F)
Wind 0° at 0KT
Clouds overcast at 5,500ft
Visibility 10.0mi
Time observed: 2022-01-25T15:54:00Z

Philadelphia Intl (Airport) Details

Status Operational
Activation October 1940
Ownership Public
Usage Public
Chart WASHINGTON
ATC on-site Yes
Beacon schedule sunset-sunrise
Beacon color clear green

Philadelphia Intl (Airport) Contacts

Owner CITY OF PHILADELPHIA
Owner address DIV OF AVIATION TERMINAL E, PHILADELPHIA, PA 19153
Owner phone 215-937-6800
Manager BARBARA A BOSTON
Manager address MS 300-BROAD & VINE STREETS, PHILADELPHIA, PA 19102
Manager phone (215) 762-8918

Philadelphia Intl Radio Frequencies

Philadelphia Intl (Airport) Radio Frequencies

UNICOM 122.95
Common traffic advisory frequency (CTAF) N/A